sensor_id;sensor_type;location;lat;lon;timestamp;pressure;altitude;pressure_sealevel;temperature;humidity
27712;BME280;2377;51.734;8.950;2023-04-26T00:01:54;97917.22;;;5.14;77.70
27712;BME280;2377;51.734;8.950;2023-04-26T00:04:22;97908.06;;;5.13;77.58
27712;BME280;2377;51.734;8.950;2023-04-26T00:06:49;97911.53;;;5.12;77.45
27712;BME280;2377;51.734;8.950;2023-04-26T00:09:16;97913.97;;;5.05;77.39
27712;BME280;2377;51.734;8.950;2023-04-26T00:11:44;97914.94;;;5.04;77.30
27712;BME280;2377;51.734;8.950;2023-04-26T00:14:11;97912.16;;;4.99;77.55
27712;BME280;2377;51.734;8.950;2023-04-26T00:16:38;97909.78;;;4.98;78.14
27712;BME280;2377;51.734;8.950;2023-04-26T00:19:06;97911.53;;;4.97;78.00
27712;BME280;2377;51.734;8.950;2023-04-26T00:21:35;97918.69;;;4.94;78.16
27712;BME280;2377;51.734;8.950;2023-04-26T00:24:02;97916.00;;;4.95;78.32
27712;BME280;2377;51.734;8.950;2023-04-26T00:26:30;97911.69;;;4.96;77.99
27712;BME280;2377;51.734;8.950;2023-04-26T00:28:59;97910.91;;;4.95;78.61
27712;BME280;2377;51.734;8.950;2023-04-26T00:31:25;97904.28;;;4.94;78.19
27712;BME280;2377;51.734;8.950;2023-04-26T00:33:52;97905.44;;;4.92;77.59
27712;BME280;2377;51.734;8.950;2023-04-26T00:36:21;97910.56;;;4.83;77.98
27712;BME280;2377;51.734;8.950;2023-04-26T00:38:48;97905.84;;;4.80;78.20
27712;BME280;2377;51.734;8.950;2023-04-26T00:41:15;97912.22;;;4.76;78.53
27712;BME280;2377;51.734;8.950;2023-04-26T00:43:41;97912.72;;;4.72;78.62
27712;BME280;2377;51.734;8.950;2023-04-26T00:46:09;97919.69;;;4.70;78.47
27712;BME280;2377;51.734;8.950;2023-04-26T00:48:36;97912.63;;;4.65;78.70
27712;BME280;2377;51.734;8.950;2023-04-26T00:51:04;97913.25;;;4.67;78.60
27712;BME280;2377;51.734;8.950;2023-04-26T00:53:33;97918.91;;;4.69;78.47
27712;BME280;2377;51.734;8.950;2023-04-26T00:56:01;97921.00;;;4.65;78.97
27712;BME280;2377;51.734;8.950;2023-04-26T00:58:28;97914.25;;;4.58;79.81
27712;BME280;2377;51.734;8.950;2023-04-26T01:00:55;97908.25;;;4.59;79.15
27712;BME280;2377;51.734;8.950;2023-04-26T01:03:23;97918.38;;;4.59;79.50
27712;BME280;2377;51.734;8.950;2023-04-26T01:05:52;97912.00;;;4.63;80.12
27712;BME280;2377;51.734;8.950;2023-04-26T01:08:19;97906.94;;;4.63;79.79
27712;BME280;2377;51.734;8.950;2023-04-26T01:10:48;97910.09;;;4.65;79.68
27712;BME280;2377;51.734;8.950;2023-04-26T01:13:16;97906.16;;;4.62;80.10
27712;BME280;2377;51.734;8.950;2023-04-26T01:15:44;97909.19;;;4.58;79.55
27712;BME280;2377;51.734;8.950;2023-04-26T01:18:12;97909.56;;;4.55;80.10
27712;BME280;2377;51.734;8.950;2023-04-26T01:20:40;97909.91;;;4.52;80.00
27712;BME280;2377;51.734;8.950;2023-04-26T01:23:09;97913.22;;;4.52;80.16
27712;BME280;2377;51.734;8.950;2023-04-26T01:25:36;97909.56;;;4.55;80.09
27712;BME280;2377;51.734;8.950;2023-04-26T01:28:03;97910.69;;;4.52;79.50
27712;BME280;2377;51.734;8.950;2023-04-26T01:30:30;97915.28;;;4.49;79.65
27712;BME280;2377;51.734;8.950;2023-04-26T01:32:57;97912.47;;;4.43;79.97
27712;BME280;2377;51.734;8.950;2023-04-26T01:35:23;97914.38;;;4.41;80.04
27712;BME280;2377;51.734;8.950;2023-04-26T01:37:50;97900.22;;;4.32;79.84
27712;BME280;2377;51.734;8.950;2023-04-26T01:40:19;97910.03;;;4.35;80.65
27712;BME280;2377;51.734;8.950;2023-04-26T01:42:46;97907.94;;;4.39;80.78
27712;BME280;2377;51.734;8.950;2023-04-26T01:45:13;97903.50;;;4.41;79.94
27712;BME280;2377;51.734;8.950;2023-04-26T01:47:40;97907.31;;;4.37;79.57
27712;BME280;2377;51.734;8.950;2023-04-26T01:50:08;97907.66;;;4.34;80.46
27712;BME280;2377;51.734;8.950;2023-04-26T01:52:35;97908.63;;;4.33;80.00
27712;BME280;2377;51.734;8.950;2023-04-26T01:55:03;97908.00;;;4.31;79.60
27712;BME280;2377;51.734;8.950;2023-04-26T01:57:31;97904.06;;;4.28;79.85
27712;BME280;2377;51.734;8.950;2023-04-26T01:59:58;97905.50;;;4.22;79.60
27712;BME280;2377;51.734;8.950;2023-04-26T02:02:27;97913.50;;;4.11;79.33
27712;BME280;2377;51.734;8.950;2023-04-26T02:04:54;97906.41;;;4.07;80.06
27712;BME280;2377;51.734;8.950;2023-04-26T02:07:20;97910.25;;;4.02;80.16
27712;BME280;2377;51.734;8.950;2023-04-26T02:09:47;97912.16;;;4.00;80.20
27712;BME280;2377;51.734;8.950;2023-04-26T02:12:14;97911.97;;;4.02;79.90
27712;BME280;2377;51.734;8.950;2023-04-26T02:14:42;97913.16;;;3.91;78.74
27712;BME280;2377;51.734;8.950;2023-04-26T02:17:09;97913.03;;;3.85;79.09
27712;BME280;2377;51.734;8.950;2023-04-26T02:19:36;97908.19;;;3.75;79.97
27712;BME280;2377;51.734;8.950;2023-04-26T02:22:04;97908.63;;;3.78;80.33
27712;BME280;2377;51.734;8.950;2023-04-26T02:24:32;97913.38;;;3.81;80.78
27712;BME280;2377;51.734;8.950;2023-04-26T02:26:59;97915.13;;;3.81;79.34
27712;BME280;2377;51.734;8.950;2023-04-26T02:29:28;97914.81;;;3.76;79.49
27712;BME280;2377;51.734;8.950;2023-04-26T02:31:57;97907.41;;;3.74;79.74
27712;BME280;2377;51.734;8.950;2023-04-26T02:34:24;97915.00;;;3.74;79.60
27712;BME280;2377;51.734;8.950;2023-04-26T02:36:50;97919.91;;;3.68;78.95
27712;BME280;2377;51.734;8.950;2023-04-26T02:39:17;97924.97;;;3.68;79.30
27712;BME280;2377;51.734;8.950;2023-04-26T02:41:45;97921.97;;;3.64;79.10
27712;BME280;2377;51.734;8.950;2023-04-26T02:44:12;97924.34;;;3.66;79.88
27712;BME280;2377;51.734;8.950;2023-04-26T02:46:39;97909.22;;;3.57;79.38
27712;BME280;2377;51.734;8.950;2023-04-26T02:49:07;97915.56;;;3.53;79.39
27712;BME280;2377;51.734;8.950;2023-04-26T02:51:34;97915.06;;;3.50;79.98
27712;BME280;2377;51.734;8.950;2023-04-26T02:54:01;97904.84;;;3.43;79.23
27712;BME280;2377;51.734;8.950;2023-04-26T02:56:28;97914.50;;;3.39;79.20
27712;BME280;2377;51.734;8.950;2023-04-26T02:58:56;97908.97;;;3.36;79.87
27712;BME280;2377;51.734;8.950;2023-04-26T03:01:22;97905.50;;;3.37;79.44
27712;BME280;2377;51.734;8.950;2023-04-26T03:03:49;97903.91;;;3.36;79.47
27712;BME280;2377;51.734;8.950;2023-04-26T03:06:18;97906.44;;;3.36;79.81
27712;BME280;2377;51.734;8.950;2023-04-26T03:08:45;97906.63;;;3.34;79.45
27712;BME280;2377;51.734;8.950;2023-04-26T03:11:12;97911.06;;;3.32;79.90
27712;BME280;2377;51.734;8.950;2023-04-26T03:13:39;97914.06;;;3.28;79.80
27712;BME280;2377;51.734;8.950;2023-04-26T03:16:06;97914.06;;;3.20;79.04
27712;BME280;2377;51.734;8.950;2023-04-26T03:18:34;97913.81;;;3.06;79.95
27712;BME280;2377;51.734;8.950;2023-04-26T03:21:00;97914.75;;;3.05;80.13
27712;BME280;2377;51.734;8.950;2023-04-26T03:23:29;97917.94;;;2.99;80.37
27712;BME280;2377;51.734;8.950;2023-04-26T03:25:56;97917.13;;;2.99;80.33
27712;BME280;2377;51.734;8.950;2023-04-26T03:28:23;97914.44;;;3.00;80.06
27712;BME280;2377;51.734;8.950;2023-04-26T03:30:50;97915.22;;;3.01;80.05
27712;BME280;2377;51.734;8.950;2023-04-26T03:33:17;97913.81;;;2.98;80.34
27712;BME280;2377;51.734;8.950;2023-04-26T03:35:44;97916.66;;;2.95;79.63
27712;BME280;2377;51.734;8.950;2023-04-26T03:38:11;97920.16;;;2.94;80.06
27712;BME280;2377;51.734;8.950;2023-04-26T03:40:39;97907.84;;;2.91;78.91
27712;BME280;2377;51.734;8.950;2023-04-26T03:43:06;97906.41;;;2.88;79.64
27712;BME280;2377;51.734;8.950;2023-04-26T03:45:33;97915.41;;;2.91;79.66
27712;BME280;2377;51.734;8.950;2023-04-26T03:48:01;97900.44;;;2.89;79.81
27712;BME280;2377;51.734;8.950;2023-04-26T03:50:28;97905.47;;;2.81;79.71
27712;BME280;2377;51.734;8.950;2023-04-26T03:52:55;97902.81;;;2.74;79.37
27712;BME280;2377;51.734;8.950;2023-04-26T03:55:22;97899.66;;;2.72;80.47
27712;BME280;2377;51.734;8.950;2023-04-26T03:57:50;97899.66;;;2.72;79.97
27712;BME280;2377;51.734;8.950;2023-04-26T04:00:18;97896.03;;;2.75;80.46
27712;BME280;2377;51.734;8.950;2023-04-26T04:02:46;97894.16;;;2.69;79.73
27712;BME280;2377;51.734;8.950;2023-04-26T04:05:13;97895.91;;;2.68;80.32
27712;BME280;2377;51.734;8.950;2023-04-26T04:07:39;97901.53;;;2.70;80.85
27712;BME280;2377;51.734;8.950;2023-04-26T04:10:08;97910.06;;;2.69;80.96
27712;BME280;2377;51.734;8.950;2023-04-26T04:12:36;97904.41;;;2.67;80.48
27712;BME280;2377;51.734;8.950;2023-04-26T04:15:06;97910.06;;;2.69;80.94
27712;BME280;2377;51.734;8.950;2023-04-26T04:17:33;97912.91;;;2.66;79.96
27712;BME280;2377;51.734;8.950;2023-04-26T04:20:01;97911.03;;;2.68;80.13
27712;BME280;2377;51.734;8.950;2023-04-26T04:22:29;97906.91;;;2.67;79.94
27712;BME280;2377;51.734;8.950;2023-04-26T04:24:56;97912.91;;;2.66;81.12
27712;BME280;2377;51.734;8.950;2023-04-26T04:27:24;97908.66;;;2.67;80.89
27712;BME280;2377;51.734;8.950;2023-04-26T04:29:51;97907.88;;;2.66;80.80
27712;BME280;2377;51.734;8.950;2023-04-26T04:32:21;97907.25;;;2.64;80.33
27712;BME280;2377;51.734;8.950;2023-04-26T04:34:49;97910.69;;;2.63;80.77
27712;BME280;2377;51.734;8.950;2023-04-26T04:37:18;97913.38;;;2.53;80.34
27712;BME280;2377;51.734;8.950;2023-04-26T04:39:45;97910.22;;;2.51;80.75
27712;BME280;2377;51.734;8.950;2023-04-26T04:42:12;97914.97;;;2.54;81.29
27712;BME280;2377;51.734;8.950;2023-04-26T04:44:40;97927.91;;;2.60;81.17
27712;BME280;2377;51.734;8.950;2023-04-26T04:47:07;97922.06;;;2.59;80.73
27712;BME280;2377;51.734;8.950;2023-04-26T04:49:36;97926.78;;;2.62;81.32
27712;BME280;2377;51.734;8.950;2023-04-26T04:52:03;97927.28;;;2.66;81.68
27712;BME280;2377;51.734;8.950;2023-04-26T04:54:31;97926.19;;;2.68;81.17
27712;BME280;2377;51.734;8.950;2023-04-26T04:56:58;97922.53;;;2.71;81.45
27712;BME280;2377;51.734;8.950;2023-04-26T04:59:25;97927.91;;;2.76;82.39
27712;BME280;2377;51.734;8.950;2023-04-26T05:01:52;97929.31;;;2.79;81.52
27712;BME280;2377;51.734;8.950;2023-04-26T05:04:20;97934.69;;;2.75;81.96
27712;BME280;2377;51.734;8.950;2023-04-26T05:06:48;97926.78;;;2.79;82.38
27712;BME280;2377;51.734;8.950;2023-04-26T05:09:15;97926.16;;;2.85;81.83
27712;BME280;2377;51.734;8.950;2023-04-26T05:11:42;97933.84;;;2.91;81.99
27712;BME280;2377;51.734;8.950;2023-04-26T05:14:09;97938.13;;;2.99;82.09
27712;BME280;2377;51.734;8.950;2023-04-26T05:16:36;97940.47;;;3.09;82.22
27712;BME280;2377;51.734;8.950;2023-04-26T05:19:03;97941.25;;;3.17;82.27
27712;BME280;2377;51.734;8.950;2023-04-26T05:21:30;97945.78;;;3.22;82.54
27712;BME280;2377;51.734;8.950;2023-04-26T05:23:59;97947.69;;;3.28;83.17
27712;BME280;2377;51.734;8.950;2023-04-26T05:26:26;97942.91;;;3.42;82.79
27712;BME280;2377;51.734;8.950;2023-04-26T05:28:52;97948.72;;;3.50;82.70
27712;BME280;2377;51.734;8.950;2023-04-26T05:31:20;97951.72;;;3.54;83.16
27712;BME280;2377;51.734;8.950;2023-04-26T05:33:47;97944.75;;;3.56;84.00
27712;BME280;2377;51.734;8.950;2023-04-26T05:36:14;97946.31;;;3.57;85.03
27712;BME280;2377;51.734;8.950;2023-04-26T05:38:41;97948.06;;;3.65;83.90
27712;BME280;2377;51.734;8.950;2023-04-26T05:41:09;97945.03;;;3.69;84.68
27712;BME280;2377;51.734;8.950;2023-04-26T05:43:36;97949.91;;;3.71;84.17
27712;BME280;2377;51.734;8.950;2023-04-26T05:46:03;97956.84;;;3.77;84.87
27712;BME280;2377;51.734;8.950;2023-04-26T05:48:30;97960.63;;;3.81;85.12
27712;BME280;2377;51.734;8.950;2023-04-26T05:50:57;97957.13;;;3.82;85.62
27712;BME280;2377;51.734;8.950;2023-04-26T05:53:24;97957.13;;;3.82;86.04
27712;BME280;2377;51.734;8.950;2023-04-26T05:55:51;97965.63;;;3.89;85.71
27712;BME280;2377;51.734;8.950;2023-04-26T05:58:20;97971.94;;;3.93;85.82
27712;BME280;2377;51.734;8.950;2023-04-26T06:00:47;97959.41;;;4.00;86.38
27712;BME280;2377;51.734;8.950;2023-04-26T06:03:14;97964.75;;;4.05;86.43
27712;BME280;2377;51.734;8.950;2023-04-26T06:05:41;97967.44;;;4.03;85.16
27712;BME280;2377;51.734;8.950;2023-04-26T06:08:08;97969.94;;;4.12;85.83
27712;BME280;2377;51.734;8.950;2023-04-26T06:10:35;97969.25;;;4.18;85.79
27712;BME280;2377;51.734;8.950;2023-04-26T06:13:03;97971.75;;;4.26;85.56
27712;BME280;2377;51.734;8.950;2023-04-26T06:15:31;97973.59;;;4.32;84.78
27712;BME280;2377;51.734;8.950;2023-04-26T06:17:58;97971.34;;;4.37;84.92
27712;BME280;2377;51.734;8.950;2023-04-26T06:20:25;97971.19;;;4.39;85.25
27712;BME280;2377;51.734;8.950;2023-04-26T06:22:52;97977.03;;;4.39;84.37
27712;BME280;2377;51.734;8.950;2023-04-26T06:25:19;97976.72;;;4.42;84.69
27712;BME280;2377;51.734;8.950;2023-04-26T06:27:46;97983.00;;;4.47;85.09
27712;BME280;2377;51.734;8.950;2023-04-26T06:30:13;97985.53;;;4.47;85.50
27712;BME280;2377;51.734;8.950;2023-04-26T06:32:42;97982.47;;;4.51;85.31
27712;BME280;2377;51.734;8.950;2023-04-26T06:35:09;97987.72;;;4.50;85.18
27712;BME280;2377;51.734;8.950;2023-04-26T06:37:36;97987.50;;;4.59;85.13
27712;BME280;2377;51.734;8.950;2023-04-26T06:40:05;97990.78;;;4.68;85.08
27712;BME280;2377;51.734;8.950;2023-04-26T06:42:32;98000.56;;;4.71;84.33
27712;BME280;2377;51.734;8.950;2023-04-26T06:44:59;97991.94;;;4.80;85.46
27712;BME280;2377;51.734;8.950;2023-04-26T06:47:26;97996.25;;;4.95;85.07
27712;BME280;2377;51.734;8.950;2023-04-26T06:49:54;98002.56;;;5.14;84.91
27712;BME280;2377;51.734;8.950;2023-04-26T06:52:22;98012.34;;;5.17;83.70
27712;BME280;2377;51.734;8.950;2023-04-26T06:54:49;98007.22;;;5.25;84.01
27712;BME280;2377;51.734;8.950;2023-04-26T06:57:16;98005.38;;;5.19;82.88
27712;BME280;2377;51.734;8.950;2023-04-26T06:59:43;98010.44;;;5.19;83.15
27712;BME280;2377;51.734;8.950;2023-04-26T07:02:09;98000.66;;;5.30;82.75
27712;BME280;2377;51.734;8.950;2023-04-26T07:04:36;98003.13;;;5.54;84.28
27712;BME280;2377;51.734;8.950;2023-04-26T07:07:05;98006.53;;;5.61;82.42
27712;BME280;2377;51.734;8.950;2023-04-26T07:09:32;98006.28;;;5.70;81.88
27712;BME280;2377;51.734;8.950;2023-04-26T07:11:59;98003.72;;;5.85;81.70
27712;BME280;2377;51.734;8.950;2023-04-26T07:14:26;98005.84;;;5.82;79.74
27712;BME280;2377;51.734;8.950;2023-04-26T07:16:53;97999.09;;;5.89;78.68
27712;BME280;2377;51.734;8.950;2023-04-26T07:19:20;98009.97;;;5.98;79.49
27712;BME280;2377;51.734;8.950;2023-04-26T07:21:48;98014.38;;;6.10;79.70
27712;BME280;2377;51.734;8.950;2023-04-26T07:24:16;98017.00;;;6.17;80.08
27712;BME280;2377;51.734;8.950;2023-04-26T07:26:43;98015.72;;;6.28;78.97
27712;BME280;2377;51.734;8.950;2023-04-26T07:29:10;98008.72;;;6.45;78.38
27712;BME280;2377;51.734;8.950;2023-04-26T07:31:37;98015.66;;;6.57;77.46
27712;BME280;2377;51.734;8.950;2023-04-26T07:34:04;98013.09;;;6.79;76.75
27712;BME280;2377;51.734;8.950;2023-04-26T07:36:34;98012.22;;;6.87;75.36
27712;BME280;2377;51.734;8.950;2023-04-26T07:39:01;98013.59;;;6.68;73.98
27712;BME280;2377;51.734;8.950;2023-04-26T07:41:31;98020.19;;;6.62;75.73
27712;BME280;2377;51.734;8.950;2023-04-26T07:43:57;98015.47;;;6.59;75.88
27712;BME280;2377;51.734;8.950;2023-04-26T07:46:24;98008.47;;;6.61;75.78
27712;BME280;2377;51.734;8.950;2023-04-26T07:48:51;98006.84;;;6.75;74.82
27712;BME280;2377;51.734;8.950;2023-04-26T07:51:18;98002.81;;;6.87;74.79
27712;BME280;2377;51.734;8.950;2023-04-26T07:53:45;98007.91;;;6.87;75.54
27712;BME280;2377;51.734;8.950;2023-04-26T07:56:12;98020.84;;;6.92;76.20
27712;BME280;2377;51.734;8.950;2023-04-26T07:58:41;98009.66;;;6.87;74.30
27712;BME280;2377;51.734;8.950;2023-04-26T08:01:08;98009.00;;;6.78;73.65
27712;BME280;2377;51.734;8.950;2023-04-26T08:03:38;98017.34;;;6.72;74.15
27712;BME280;2377;51.734;8.950;2023-04-26T08:06:05;98012.03;;;6.67;72.89
27712;BME280;2377;51.734;8.950;2023-04-26T08:08:33;98019.09;;;6.71;74.84
27712;BME280;2377;51.734;8.950;2023-04-26T08:11:07;98019.53;;;6.75;74.28
27712;BME280;2377;51.734;8.950;2023-04-26T08:13:34;98012.50;;;6.77;74.02
27712;BME280;2377;51.734;8.950;2023-04-26T08:16:03;98024.25;;;6.78;74.36
27712;BME280;2377;51.734;8.950;2023-04-26T08:18:30;98024.63;;;6.75;74.10
27712;BME280;2377;51.734;8.950;2023-04-26T08:20:57;98022.25;;;6.73;72.01
27712;BME280;2377;51.734;8.950;2023-04-26T08:23:24;98023.81;;;6.74;72.94
27712;BME280;2377;51.734;8.950;2023-04-26T08:25:51;98026.41;;;6.81;73.85
27712;BME280;2377;51.734;8.950;2023-04-26T08:28:18;98029.41;;;6.91;72.72
27712;BME280;2377;51.734;8.950;2023-04-26T08:30:44;98024.84;;;7.02;73.53
27712;BME280;2377;51.734;8.950;2023-04-26T08:33:13;98017.31;;;6.93;70.92
27712;BME280;2377;51.734;8.950;2023-04-26T08:35:40;98023.38;;;6.92;69.08
27712;BME280;2377;51.734;8.950;2023-04-26T08:38:07;98027.63;;;6.85;69.82
27712;BME280;2377;51.734;8.950;2023-04-26T08:40:35;98022.47;;;7.00;70.81
27712;BME280;2377;51.734;8.950;2023-04-26T08:43:02;98026.06;;;7.40;72.24
27712;BME280;2377;51.734;8.950;2023-04-26T08:45:33;98031.53;;;7.72;71.85
27712;BME280;2377;51.734;8.950;2023-04-26T08:48:05;98027.09;;;7.81;67.48
27712;BME280;2377;51.734;8.950;2023-04-26T08:50:38;98033.13;;;7.80;67.27
27712;BME280;2377;51.734;8.950;2023-04-26T08:53:07;98025.25;;;7.68;65.84
27712;BME280;2377;51.734;8.950;2023-04-26T08:55:36;98026.03;;;7.62;66.59
27712;BME280;2377;51.734;8.950;2023-04-26T08:58:04;98020.94;;;7.62;65.78
27712;BME280;2377;51.734;8.950;2023-04-26T09:00:32;98024.81;;;7.58;66.65
27712;BME280;2377;51.734;8.950;2023-04-26T09:03:00;98028.31;;;7.57;65.50
27712;BME280;2377;51.734;8.950;2023-04-26T09:05:26;98022.41;;;7.50;66.33
27712;BME280;2377;51.734;8.950;2023-04-26T09:08:01;98023.56;;;7.47;66.89
27712;BME280;2377;51.734;8.950;2023-04-26T09:10:30;98024.56;;;7.46;66.28
27712;BME280;2377;51.734;8.950;2023-04-26T09:12:58;98027.88;;;7.47;66.82
27712;BME280;2377;51.734;8.950;2023-04-26T09:15:25;98021.22;;;7.46;66.65
27712;BME280;2377;51.734;8.950;2023-04-26T09:17:53;98021.25;;;7.52;66.40
27712;BME280;2377;51.734;8.950;2023-04-26T09:20:23;98017.38;;;7.56;66.92
27712;BME280;2377;51.734;8.950;2023-04-26T09:22:52;98015.84;;;7.69;65.63
27712;BME280;2377;51.734;8.950;2023-04-26T09:25:29;98027.22;;;7.73;65.43
27712;BME280;2377;51.734;8.950;2023-04-26T09:27:57;98024.50;;;7.74;65.59
27712;BME280;2377;51.734;8.950;2023-04-26T09:30:25;98029.44;;;7.82;66.13
27712;BME280;2377;51.734;8.950;2023-04-26T09:32:55;98026.66;;;7.77;65.32
27712;BME280;2377;51.734;8.950;2023-04-26T09:35:31;98031.94;;;7.76;66.67
27712;BME280;2377;51.734;8.950;2023-04-26T09:38:01;98033.47;;;7.70;66.89
27712;BME280;2377;51.734;8.950;2023-04-26T09:40:33;98036.59;;;7.66;65.41
27712;BME280;2377;51.734;8.950;2023-04-26T09:43:05;98034.69;;;7.74;66.03
27712;BME280;2377;51.734;8.950;2023-04-26T09:45:44;98027.22;;;7.73;67.08
27712;BME280;2377;51.734;8.950;2023-04-26T09:48:19;98029.06;;;7.86;67.16
27712;BME280;2377;51.734;8.950;2023-04-26T09:50:49;98032.09;;;8.09;67.28
27712;BME280;2377;51.734;8.950;2023-04-26T09:53:32;98037.31;;;8.42;65.53
27712;BME280;2377;51.734;8.950;2023-04-26T09:56:12;98027.16;;;8.69;62.67
27712;BME280;2377;51.734;8.950;2023-04-26T09:58:57;98025.44;;;8.89;64.13
27712;BME280;2377;51.734;8.950;2023-04-26T10:01:26;98026.00;;;8.98;61.09
27712;BME280;2377;51.734;8.950;2023-04-26T10:03:55;98034.06;;;9.02;60.20
27712;BME280;2377;51.734;8.950;2023-04-26T10:06:22;98033.09;;;8.96;60.46
27712;BME280;2377;51.734;8.950;2023-04-26T10:08:50;98027.19;;;8.76;59.58
27712;BME280;2377;51.734;8.950;2023-04-26T10:11:20;98016.97;;;8.62;58.79
27712;BME280;2377;51.734;8.950;2023-04-26T10:13:50;98022.63;;;8.51;59.74
27712;BME280;2377;51.734;8.950;2023-04-26T10:16:17;98027.31;;;8.41;59.89
27712;BME280;2377;51.734;8.950;2023-04-26T10:18:46;98026.34;;;8.42;62.23
27712;BME280;2377;51.734;8.950;2023-04-26T10:21:19;98034.34;;;8.39;61.88
27712;BME280;2377;51.734;8.950;2023-04-26T10:23:48;98029.78;;;8.27;61.29
27712;BME280;2377;51.734;8.950;2023-04-26T10:26:48;98028.63;;;8.23;61.92
27712;BME280;2377;51.734;8.950;2023-04-26T10:29:16;98026.06;;;8.23;62.75
27712;BME280;2377;51.734;8.950;2023-04-26T10:32:07;98015.31;;;8.28;62.72
27712;BME280;2377;51.734;8.950;2023-04-26T10:34:35;98017.06;;;8.34;63.14
27712;BME280;2377;51.734;8.950;2023-04-26T10:37:07;98017.94;;;8.48;63.88
27712;BME280;2377;51.734;8.950;2023-04-26T10:39:34;98010.13;;;8.56;63.19
27712;BME280;2377;51.734;8.950;2023-04-26T10:42:23;98014.03;;;8.59;62.28
27712;BME280;2377;51.734;8.950;2023-04-26T10:44:52;98013.25;;;8.52;61.53
27712;BME280;2377;51.734;8.950;2023-04-26T10:47:29;98012.81;;;8.41;60.68
27712;BME280;2377;51.734;8.950;2023-04-26T10:50:08;98013.00;;;8.46;61.09
27712;BME280;2377;51.734;8.950;2023-04-26T10:52:37;98007.72;;;8.41;60.62
27712;BME280;2377;51.734;8.950;2023-04-26T10:55:45;98010.69;;;8.45;59.41
27712;BME280;2377;51.734;8.950;2023-04-26T10:58:30;98013.22;;;8.45;58.91
27712;BME280;2377;51.734;8.950;2023-04-26T11:01:04;98005.16;;;8.41;59.71
27712;BME280;2377;51.734;8.950;2023-04-26T11:03:31;98015.91;;;8.37;61.23
27712;BME280;2377;51.734;8.950;2023-04-26T11:05:59;98014.50;;;8.27;60.76
27712;BME280;2377;51.734;8.950;2023-04-26T11:08:28;98013.31;;;8.17;61.36
27712;BME280;2377;51.734;8.950;2023-04-26T11:11:09;98014.84;;;8.11;60.80
27712;BME280;2377;51.734;8.950;2023-04-26T11:13:40;98014.41;;;7.94;62.25
27712;BME280;2377;51.734;8.950;2023-04-26T11:16:08;98025.56;;;7.93;62.18
27712;BME280;2377;51.734;8.950;2023-04-26T11:18:38;98016.78;;;7.96;61.75
27712;BME280;2377;51.734;8.950;2023-04-26T11:21:06;98020.31;;;8.01;61.41
27712;BME280;2377;51.734;8.950;2023-04-26T11:23:33;98024.81;;;8.06;61.13
27712;BME280;2377;51.734;8.950;2023-04-26T11:26:03;98014.03;;;8.04;60.20
27712;BME280;2377;51.734;8.950;2023-04-26T11:28:31;98014.84;;;8.04;59.86
27712;BME280;2377;51.734;8.950;2023-04-26T11:31:02;98016.22;;;8.07;57.99
27712;BME280;2377;51.734;8.950;2023-04-26T11:33:29;98019.56;;;8.08;59.83
27712;BME280;2377;51.734;8.950;2023-04-26T11:35:59;98016.25;;;8.14;60.71
27712;BME280;2377;51.734;8.950;2023-04-26T11:38:27;98022.75;;;8.30;58.86
27712;BME280;2377;51.734;8.950;2023-04-26T11:40:56;98025.13;;;8.38;59.56
27712;BME280;2377;51.734;8.950;2023-04-26T11:43:33;98024.00;;;8.47;58.67
27712;BME280;2377;51.734;8.950;2023-04-26T11:46:01;98030.09;;;8.59;59.04
27712;BME280;2377;51.734;8.950;2023-04-26T11:48:30;98029.91;;;8.67;58.46
27712;BME280;2377;51.734;8.950;2023-04-26T11:50:59;98027.19;;;8.76;58.05
27712;BME280;2377;51.734;8.950;2023-04-26T11:53:35;98021.72;;;8.92;60.05
27712;BME280;2377;51.734;8.950;2023-04-26T11:56:04;98018.75;;;9.08;59.59
27712;BME280;2377;51.734;8.950;2023-04-26T11:58:31;98019.13;;;9.12;59.83
27712;BME280;2377;51.734;8.950;2023-04-26T12:01:00;98020.91;;;9.18;60.06
27712;BME280;2377;51.734;8.950;2023-04-26T12:03:31;98025.81;;;9.20;59.40
27712;BME280;2377;51.734;8.950;2023-04-26T12:06:00;98022.88;;;9.16;57.15
27712;BME280;2377;51.734;8.950;2023-04-26T12:08:27;98027.78;;;9.11;57.53
27712;BME280;2377;51.734;8.950;2023-04-26T12:10:58;98035.44;;;9.04;57.07
27712;BME280;2377;51.734;8.950;2023-04-26T12:13:27;98036.78;;;9.00;57.66
27712;BME280;2377;51.734;8.950;2023-04-26T12:15:55;98029.53;;;8.97;58.20
27712;BME280;2377;51.734;8.950;2023-04-26T12:18:29;98037.41;;;8.89;56.40
27712;BME280;2377;51.734;8.950;2023-04-26T12:20:58;98040.72;;;8.83;56.79
27712;BME280;2377;51.734;8.950;2023-04-26T12:23:25;98033.84;;;8.77;56.04
27712;BME280;2377;51.734;8.950;2023-04-26T12:25:54;98034.63;;;8.71;57.15
27712;BME280;2377;51.734;8.950;2023-04-26T12:28:22;98040.69;;;8.70;57.40
27712;BME280;2377;51.734;8.950;2023-04-26T12:30:50;98031.06;;;8.65;57.60
27712;BME280;2377;51.734;8.950;2023-04-26T12:33:17;98029.53;;;8.64;58.75
27712;BME280;2377;51.734;8.950;2023-04-26T12:35:49;98025.81;;;8.73;58.84
27712;BME280;2377;51.734;8.950;2023-04-26T12:38:16;98029.94;;;8.87;58.85
27712;BME280;2377;51.734;8.950;2023-04-26T12:40:43;98027.59;;;8.99;58.58
27712;BME280;2377;51.734;8.950;2023-04-26T12:43:10;98022.47;;;9.19;58.62
27712;BME280;2377;51.734;8.950;2023-04-26T12:45:37;98015.59;;;9.33;58.07
27712;BME280;2377;51.734;8.950;2023-04-26T12:48:04;98019.69;;;9.47;57.69
27712;BME280;2377;51.734;8.950;2023-04-26T12:50:32;98022.03;;;9.62;57.33
27712;BME280;2377;51.734;8.950;2023-04-26T12:53:00;98009.81;;;9.71;56.96
27712;BME280;2377;51.734;8.950;2023-04-26T12:55:27;98017.25;;;9.79;54.39
27712;BME280;2377;51.734;8.950;2023-04-26T12:57:54;98017.97;;;10.00;54.62
27712;BME280;2377;51.734;8.950;2023-04-26T13:00:21;98018.66;;;10.13;53.72
27712;BME280;2377;51.734;8.950;2023-04-26T13:02:48;98012.75;;;10.20;53.06
27712;BME280;2377;51.734;8.950;2023-04-26T13:05:15;98022.94;;;10.26;52.48
27712;BME280;2377;51.734;8.950;2023-04-26T13:07:42;98008.03;;;10.23;52.11
27712;BME280;2377;51.734;8.950;2023-04-26T13:10:11;98013.34;;;10.28;52.36
27712;BME280;2377;51.734;8.950;2023-04-26T13:12:38;98012.16;;;10.24;52.77
27712;BME280;2377;51.734;8.950;2023-04-26T13:15:06;98011.94;;;10.26;52.22
27712;BME280;2377;51.734;8.950;2023-04-26T13:17:35;98014.69;;;10.24;52.50
27712;BME280;2377;51.734;8.950;2023-04-26T13:20:04;98013.19;;;10.16;52.20
27712;BME280;2377;51.734;8.950;2023-04-26T13:22:32;98009.72;;;9.98;51.06
27712;BME280;2377;51.734;8.950;2023-04-26T13:24:59;98016.38;;;9.99;52.42
27712;BME280;2377;51.734;8.950;2023-04-26T13:27:27;98011.50;;;9.97;53.41
27712;BME280;2377;51.734;8.950;2023-04-26T13:29:54;98018.44;;;9.83;54.12